Lana — WDB2809 — position and weather

sailwx.info

Track history (hours):
 
Tides and Currents Weather Stations Pressure Air Temp Water Temp Dewpoint Dewpoint Depression Visibility Wind Speed Wind Dir Waves Ship Positions

Lana

Owner: MARINE EXPRESS INCORPORATION, ALAMEDA, CA. More information available from US FCC via Universal Licensing System.

Last reported at 2017-Dec-15 12:30 UTC. Time now 2017-Dec-16 07:18 UTC.
Position N 37°47' W 122°17'.

Length 19 m.

Type: Passenger vessel. MMSI: 338108125.

Date/timePositionNaut miles runAvg speedWind from/ knotsBaromVisibWave heightAir tempDewpointWater temp
2017-Dec-15 12:30N 37°47' W 122°17'3 6.3
2017-Dec-15 12:00N 37°46' W 122°21'0 0.2
2017-Dec-15 11:31N 37°46' W 122°21'0 0.2
2017-Dec-15 11:00N 37°46' W 122°21'0 0.0
2017-Dec-15 10:30N 37°46' W 122°21'0 0.1
2017-Dec-15 10:01N 37°46' W 122°21'3 6.4
2017-Dec-15 09:30N 37°47' W 122°17'0 0.0
2017-Dec-15 09:01N 37°47' W 122°17'0 0.0
2017-Dec-15 08:30N 37°47' W 122°17'2 3.2
2017-Dec-15 08:01N 37°48' W 122°19'2 4.4
2017-Dec-15 07:30N 37°46' W 122°21'0 0.2
2017-Dec-15 07:00N 37°46' W 122°21'2 5.0
2017-Dec-15 06:31N 37°48' W 122°19'2 0.2
2017-Dec-14 18:30N 37°48' W 122°21'0 0.1
2017-Dec-14 18:01N 37°48' W 122°22'0 0.1
2017-Dec-14 17:31N 37°48' W 122°22'3 6.8
2017-Dec-14 17:00N 37°47' W 122°17'0 0.3
2017-Dec-14 16:30N 37°48' W 122°17'0 0.1
2017-Dec-14 16:00N 37°48' W 122°18'0 0.2
2017-Dec-14 15:00N 37°47' W 122°17'0 0.0
2017-Dec-14 14:30N 37°47' W 122°17'0 0.0
2017-Dec-14 14:00N 37°47' W 122°17'0 0.0
2017-Dec-13 23:36N 37°47' W 122°17'0 0.1
2017-Dec-13 23:30N 37°47' W 122°17'4 7.4
2017-Dec-13 23:00N 37°46' W 122°21'0 0.2
2017-Dec-13 22:30N 37°46' W 122°21'0 0.0
2017-Dec-13 22:01N 37°46' W 122°21'0 0.3
2017-Dec-13 21:31N 37°46' W 122°21'0 0.1
2017-Dec-13 21:01N 37°46' W 122°21'1 2.9
2017-Dec-13 20:30N 37°47' W 122°23'1 2.3
2017-Dec-13 20:00N 37°46' W 122°21'3 5.7
2017-Dec-13 19:31N 37°48' W 122°18'4 8.3
2017-Dec-13 19:01N 37°47' W 122°23'0 0.0
2017-Dec-13 18:31N 37°47' W 122°23'0 0.0
2017-Dec-13 18:00N 37°47' W 122°23'2 3.7
2017-Dec-13 17:30N 37°46' W 122°22'0 0.3
2017-Dec-13 17:00N 37°45' W 122°22'1 2.3
2017-Dec-13 16:30N 37°46' W 122°21'3 6.1
2017-Dec-13 16:00N 37°47' W 122°17'0 0.0
2017-Dec-13 15:30N 37°47' W 122°17'0 0.1
2017-Dec-13 15:00N 37°47' W 122°17'0 0.0
2017-Dec-13 07:30N 37°47' W 122°17'0 0.0
2017-Dec-13 07:00N 37°47' W 122°17'2 4.8
2017-Dec-13 06:31N 37°47' W 122°20'4 8.7
2017-Dec-13 06:00N 37°43' W 122°20'0 0.1
2017-Dec-13 05:31N 37°43' W 122°20'0 0.1
2017-Dec-13 05:00N 37°43' W 122°20'0 0.9
2017-Dec-13 04:31N 37°43' W 122°20'5 9.6
2017-Dec-13 04:01N 37°48' W 122°19'1 2.4
2017-Dec-13 03:30N 37°47' W 122°17'0 0.0
2017-Dec-13 03:00N 37°47' W 122°17'0 0.0
2017-Dec-13 01:36N 37°47' W 122°17'0 2.2
2017-Dec-13 01:30N 37°48' W 122°18'3 5.9
2017-Dec-13 01:00N 37°45' W 122°20'1 1.2
2017-Dec-13 00:30N 37°46' W 122°20'3 1.6
2017-Dec-12 22:45N 37°47' W 122°17'2 9.2
2017-Dec-12 22:30N 37°48' W 122°20'2 4.3
2017-Dec-12 22:00N 37°46' W 122°20'0 0.2
2017-Dec-12 21:30N 37°46' W 122°20'0 0.0
2017-Dec-12 21:00N 37°46' W 122°20'3 5.8
2017-Dec-12 20:30N 37°47' W 122°17'0 0.0
2017-Dec-12 20:00N 37°47' W 122°17'0 0.0
2017-Dec-10 20:20N 37°47' W 122°17'2 7.1
2017-Dec-10 20:00N 37°47' W 122°20'4 7.9
2017-Dec-10 19:30N 37°43' W 122°20'0 0.1
2017-Dec-10 19:01N 37°43' W 122°20'1 2.8
2017-Dec-10 18:30N 37°44' W 122°20'4 7.5
2017-Dec-10 18:01N 37°47' W 122°17'0 0.0
2017-Dec-10 17:31N 37°47' W 122°17'2 4.2
2017-Dec-10 17:00N 37°48' W 122°20'3 5.8
2017-Dec-10 16:30N 37°45' W 122°21'0 0.3
2017-Dec-10 16:00N 37°45' W 122°21'0 0.6
2017-Dec-10 15:30N 37°45' W 122°21'4 7.3
2017-Dec-10 15:00N 37°48' W 122°18'0 0.0
2017-Dec-10 02:07N 37°47' W 122°17'0 3.2
2017-Dec-10 02:01N 37°48' W 122°18'4 7.5
2017-Dec-10 01:30N 37°45' W 122°21'0 0.3
2017-Dec-10 01:01N 37°45' W 122°21'0 0.4
2017-Dec-10 00:31N 37°45' W 122°21'0 0.2
2017-Dec-10 00:00N 37°45' W 122°21'0 0.2
2017-Dec-09 23:31N 37°45' W 122°21'1 2.5
2017-Dec-09 23:01N 37°46' W 122°21'3 6.3
2017-Dec-09 22:30N 37°47' W 122°17'0 0.0
2017-Dec-09 20:40N 37°47' W 122°17'1 4.8
2017-Dec-09 20:30N 37°48' W 122°18'3 6.1
2017-Dec-09 20:00N 37°45' W 122°20'0 0.1
2017-Dec-09 19:30N 37°45' W 122°21'4 7.0
2017-Dec-09 19:00N 37°47' W 122°17'0 0.0
2017-Dec-09 18:30N 37°47' W 122°17'4 7.7
2017-Dec-09 18:00N 37°45' W 122°21'0 0.2
2017-Dec-09 17:30N 37°45' W 122°21'0 0.2
2017-Dec-09 17:01N 37°45' W 122°21'1 1.2
2017-Dec-09 16:31N 37°46' W 122°21'3 7.0
2017-Dec-09 16:01N 37°47' W 122°17'0 0.0
2017-Dec-09 15:30N 37°47' W 122°17'0 0.0
2017-Dec-09 01:57N 37°47' W 122°17'4 8.0
2017-Dec-09 01:31N 37°46' W 122°21'0 0.2
2017-Dec-09 01:01N 37°46' W 122°21'0 0.2
2017-Dec-09 00:30N 37°46' W 122°21'0 0.4
2017-Dec-09 00:00N 37°46' W 122°21'2 3.6
2017-Dec-08 23:30N 37°47' W 122°23'2 3.9
2017-Dec-08 23:00N 37°45' W 122°21'3 5.7
2017-Dec-08 22:31N 37°48' W 122°19'2 3.3
2017-Dec-08 22:00N 37°47' W 122°17'0 0.0
2017-Dec-08 21:30N 37°47' W 122°17'4 9.0
2017-Dec-08 21:00N 37°47' W 122°23'2 4.0
2017-Dec-08 20:30N 37°45' W 122°21'0 0.1
2017-Dec-08 20:00N 37°45' W 122°21'0 0.0
2017-Dec-08 19:30N 37°45' W 122°21'0 0.1
2017-Dec-08 19:00N 37°45' W 122°21'0 0.4
2017-Dec-08 18:30N 37°45' W 122°21'0 0.6
2017-Dec-08 18:00N 37°46' W 122°21'2 4.3
2017-Dec-08 17:30N 37°48' W 122°20'2 4.8
2017-Dec-08 17:01N 37°47' W 122°17'0 0.0
2017-Dec-08 16:30N 37°47' W 122°17'0 0.0
2017-Dec-08 16:00N 37°47' W 122°17'1 1.9
2017-Dec-08 15:31N 37°48' W 122°18'2 4.9
2017-Dec-08 15:00N 37°46' W 122°21'1 2.2
2017-Dec-08 14:30N 37°47' W 122°20'2 4.9
2017-Dec-08 14:00N 37°47' W 122°17'0 0.0
2017-Dec-08 13:30N 37°47' W 122°17'3 6.8
2017-Dec-08 13:01N 37°46' W 122°21'2 4.1
2017-Dec-08 12:31N 37°48' W 122°20'2 0.6
2017-Dec-08 08:59N 37°47' W 122°17'4 7.9
2017-Dec-08 08:30N 37°45' W 122°21'3 6.3
2017-Dec-08 08:00N 37°48' W 122°19'1 0.2
2017-Dec-08 01:05N 37°47' W 122°17'0 0.2
2017-Dec-08 01:01N 37°47' W 122°17'1 1.6
2017-Dec-08 00:31N 37°48' W 122°18'3 5.6
2017-Dec-08 00:00N 37°46' W 122°21'3 6.7
2017-Dec-07 23:30N 37°47' W 122°17'0 0.0
2017-Dec-07 21:19N 37°47' W 122°17'0 0.0
2017-Dec-07 21:00N 37°47' W 122°17'3 5.5
2017-Dec-07 20:30N 37°47' W 122°21'2 4.7
2017-Dec-07 20:00N 37°44' W 122°21'4 7.9
2017-Dec-07 19:30N 37°48' W 122°18'1 0.1
2017-Dec-07 10:33N 37°47' W 122°17'0 0.2
2017-Dec-07 10:30N 37°47' W 122°17'5 9.7
2017-Dec-07 10:00N 37°50' W 122°22'5 9.1
2017-Dec-07 09:30N 37°54' W 122°26'2 4.1
2017-Dec-07 09:00N 37°56' W 122°27'0 0.8
2017-Dec-07 08:28N 37°55' W 122°27'3 6.9
2017-Dec-07 08:00N 37°53' W 122°24'611.1
2017-Dec-07 07:30N 37°48' W 122°20'  
Track history (hours):
 
Tides and Currents Weather Stations Pressure Air Temp Water Temp Dewpoint Dewpoint Depression Visibility Wind Speed Wind Dir Waves Ship Positions

Lana

Owner: MARINE EXPRESS INCORPORATION, ALAMEDA, CA. More information available from US FCC via Universal Licensing System.

Last reported at 2017-Dec-15 12:30 UTC. Time now 2017-Dec-16 07:18 UTC.
Position N 37°47' W 122°17'.

Length 19 m.

Type: Passenger vessel. MMSI: 338108125.

Date/timePositionNaut miles runAvg speedWind from/ knotsBaromVisibWave heightAir tempDewpointWater temp
2017-Dec-15 12:30N 37°47' W 122°17'3 6.3
2017-Dec-15 12:00N 37°46' W 122°21'0 0.2
2017-Dec-15 11:31N 37°46' W 122°21'0 0.2
2017-Dec-15 11:00N 37°46' W 122°21'0 0.0
2017-Dec-15 10:30N 37°46' W 122°21'0 0.1
2017-Dec-15 10:01N 37°46' W 122°21'3 6.4
2017-Dec-15 09:30N 37°47' W 122°17'0 0.0
2017-Dec-15 09:01N 37°47' W 122°17'0 0.0
2017-Dec-15 08:30N 37°47' W 122°17'2 3.2
2017-Dec-15 08:01N 37°48' W 122°19'2 4.4
2017-Dec-15 07:30N 37°46' W 122°21'0 0.2
2017-Dec-15 07:00N 37°46' W 122°21'2 5.0
2017-Dec-15 06:31N 37°48' W 122°19'2 0.2
2017-Dec-14 18:30N 37°48' W 122°21'0 0.1
2017-Dec-14 18:01N 37°48' W 122°22'0 0.1
2017-Dec-14 17:31N 37°48' W 122°22'3 6.8
2017-Dec-14 17:00N 37°47' W 122°17'0 0.3
2017-Dec-14 16:30N 37°48' W 122°17'0 0.1
2017-Dec-14 16:00N 37°48' W 122°18'0 0.2
2017-Dec-14 15:00N 37°47' W 122°17'0 0.0
2017-Dec-14 14:30N 37°47' W 122°17'0 0.0
2017-Dec-14 14:00N 37°47' W 122°17'0 0.0
2017-Dec-13 23:36N 37°47' W 122°17'0 0.1
2017-Dec-13 23:30N 37°47' W 122°17'4 7.4
2017-Dec-13 23:00N 37°46' W 122°21'0 0.2
2017-Dec-13 22:30N 37°46' W 122°21'0 0.0
2017-Dec-13 22:01N 37°46' W 122°21'0 0.3
2017-Dec-13 21:31N 37°46' W 122°21'0 0.1
2017-Dec-13 21:01N 37°46' W 122°21'1 2.9
2017-Dec-13 20:30N 37°47' W 122°23'1 2.3
2017-Dec-13 20:00N 37°46' W 122°21'3 5.7
2017-Dec-13 19:31N 37°48' W 122°18'4 8.3
2017-Dec-13 19:01N 37°47' W 122°23'0 0.0
2017-Dec-13 18:31N 37°47' W 122°23'0 0.0
2017-Dec-13 18:00N 37°47' W 122°23'2 3.7
2017-Dec-13 17:30N 37°46' W 122°22'0 0.3
2017-Dec-13 17:00N 37°45' W 122°22'1 2.3
2017-Dec-13 16:30N 37°46' W 122°21'3 6.1
2017-Dec-13 16:00N 37°47' W 122°17'0 0.0
2017-Dec-13 15:30N 37°47' W 122°17'0 0.1
2017-Dec-13 15:00N 37°47' W 122°17'0 0.0
2017-Dec-13 07:30N 37°47' W 122°17'0 0.0
2017-Dec-13 07:00N 37°47' W 122°17'2 4.8
2017-Dec-13 06:31N 37°47' W 122°20'4 8.7
2017-Dec-13 06:00N 37°43' W 122°20'0 0.1
2017-Dec-13 05:31N 37°43' W 122°20'0 0.1
2017-Dec-13 05:00N 37°43' W 122°20'0 0.9
2017-Dec-13 04:31N 37°43' W 122°20'5 9.6
2017-Dec-13 04:01N 37°48' W 122°19'1 2.4
2017-Dec-13 03:30N 37°47' W 122°17'0 0.0
2017-Dec-13 03:00N 37°47' W 122°17'0 0.0
2017-Dec-13 01:36N 37°47' W 122°17'0 2.2
2017-Dec-13 01:30N 37°48' W 122°18'3 5.9
2017-Dec-13 01:00N 37°45' W 122°20'1 1.2
2017-Dec-13 00:30N 37°46' W 122°20'3 1.6
2017-Dec-12 22:45N 37°47' W 122°17'2 9.2
2017-Dec-12 22:30N 37°48' W 122°20'2 4.3
2017-Dec-12 22:00N 37°46' W 122°20'0 0.2
2017-Dec-12 21:30N 37°46' W 122°20'0 0.0
2017-Dec-12 21:00N 37°46' W 122°20'3 5.8
2017-Dec-12 20:30N 37°47' W 122°17'0 0.0
2017-Dec-12 20:00N 37°47' W 122°17'0 0.0
2017-Dec-10 20:20N 37°47' W 122°17'2 7.1
2017-Dec-10 20:00N 37°47' W 122°20'4 7.9
2017-Dec-10 19:30N 37°43' W 122°20'0 0.1
2017-Dec-10 19:01N 37°43' W 122°20'1 2.8
2017-Dec-10 18:30N 37°44' W 122°20'4 7.5
2017-Dec-10 18:01N 37°47' W 122°17'0 0.0
2017-Dec-10 17:31N 37°47' W 122°17'2 4.2
2017-Dec-10 17:00N 37°48' W 122°20'3 5.8
2017-Dec-10 16:30N 37°45' W 122°21'0 0.3
2017-Dec-10 16:00N 37°45' W 122°21'0 0.6
2017-Dec-10 15:30N 37°45' W 122°21'4 7.3
2017-Dec-10 15:00N 37°48' W 122°18'0 0.0
2017-Dec-10 02:07N 37°47' W 122°17'0 3.2
2017-Dec-10 02:01N 37°48' W 122°18'4 7.5
2017-Dec-10 01:30N 37°45' W 122°21'0 0.3
2017-Dec-10 01:01N 37°45' W 122°21'0 0.4
2017-Dec-10 00:31N 37°45' W 122°21'0 0.2
2017-Dec-10 00:00N 37°45' W 122°21'0 0.2
2017-Dec-09 23:31N 37°45' W 122°21'1 2.5
2017-Dec-09 23:01N 37°46' W 122°21'3 6.3
2017-Dec-09 22:30N 37°47' W 122°17'0 0.0
2017-Dec-09 20:40N 37°47' W 122°17'1 4.8
2017-Dec-09 20:30N 37°48' W 122°18'3 6.1
2017-Dec-09 20:00N 37°45' W 122°20'0 0.1
2017-Dec-09 19:30N 37°45' W 122°21'4 7.0
2017-Dec-09 19:00N 37°47' W 122°17'0 0.0
2017-Dec-09 18:30N 37°47' W 122°17'4 7.7
2017-Dec-09 18:00N 37°45' W 122°21'0 0.2
2017-Dec-09 17:30N 37°45' W 122°21'0 0.2
2017-Dec-09 17:01N 37°45' W 122°21'1 1.2
2017-Dec-09 16:31N 37°46' W 122°21'3 7.0
2017-Dec-09 16:01N 37°47' W 122°17'0 0.0
2017-Dec-09 15:30N 37°47' W 122°17'0 0.0
2017-Dec-09 01:57N 37°47' W 122°17'4 8.0
2017-Dec-09 01:31N 37°46' W 122°21'0 0.2
2017-Dec-09 01:01N 37°46' W 122°21'0 0.2
2017-Dec-09 00:30N 37°46' W 122°21'0 0.4
2017-Dec-09 00:00N 37°46' W 122°21'2 3.6
2017-Dec-08 23:30N 37°47' W 122°23'2 3.9
2017-Dec-08 23:00N 37°45' W 122°21'3 5.7
2017-Dec-08 22:31N 37°48' W 122°19'2 3.3
2017-Dec-08 22:00N 37°47' W 122°17'0 0.0
2017-Dec-08 21:30N 37°47' W 122°17'4 9.0
2017-Dec-08 21:00N 37°47' W 122°23'2 4.0
2017-Dec-08 20:30N 37°45' W 122°21'0 0.1
2017-Dec-08 20:00N 37°45' W 122°21'0 0.0
2017-Dec-08 19:30N 37°45' W 122°21'0 0.1
2017-Dec-08 19:00N 37°45' W 122°21'0 0.4
2017-Dec-08 18:30N 37°45' W 122°21'0 0.6
2017-Dec-08 18:00N 37°46' W 122°21'2 4.3
2017-Dec-08 17:30N 37°48' W 122°20'2 4.8
2017-Dec-08 17:01N 37°47' W 122°17'0 0.0
2017-Dec-08 16:30N 37°47' W 122°17'0 0.0
2017-Dec-08 16:00N 37°47' W 122°17'1 1.9
2017-Dec-08 15:31N 37°48' W 122°18'2 4.9
2017-Dec-08 15:00N 37°46' W 122°21'1 2.2
2017-Dec-08 14:30N 37°47' W 122°20'2 4.9
2017-Dec-08 14:00N 37°47' W 122°17'0 0.0
2017-Dec-08 13:30N 37°47' W 122°17'3 6.8
2017-Dec-08 13:01N 37°46' W 122°21'2 4.1
2017-Dec-08 12:31N 37°48' W 122°20'2 0.6
2017-Dec-08 08:59N 37°47' W 122°17'4 7.9
2017-Dec-08 08:30N 37°45' W 122°21'3 6.3
2017-Dec-08 08:00N 37°48' W 122°19'1 0.2
2017-Dec-08 01:05N 37°47' W 122°17'0 0.2
2017-Dec-08 01:01N 37°47' W 122°17'1 1.6
2017-Dec-08 00:31N 37°48' W 122°18'3 5.6
2017-Dec-08 00:00N 37°46' W 122°21'3 6.7
2017-Dec-07 23:30N 37°47' W 122°17'0 0.0
2017-Dec-07 21:19N 37°47' W 122°17'0 0.0
2017-Dec-07 21:00N 37°47' W 122°17'3 5.5
2017-Dec-07 20:30N 37°47' W 122°21'2 4.7
2017-Dec-07 20:00N 37°44' W 122°21'4 7.9
2017-Dec-07 19:30N 37°48' W 122°18'1 0.1
2017-Dec-07 10:33N 37°47' W 122°17'0 0.2
2017-Dec-07 10:30N 37°47' W 122°17'5 9.7
2017-Dec-07 10:00N 37°50' W 122°22'5 9.1
2017-Dec-07 09:30N 37°54' W 122°26'2 4.1
2017-Dec-07 09:00N 37°56' W 122°27'0 0.8
2017-Dec-07 08:28N 37°55' W 122°27'3 6.9
2017-Dec-07 08:00N 37°53' W 122°24'611.1
2017-Dec-07 07:30N 37°48' W 122°20'  

Dump ship's entire track history